createdAt,value
2019-03-18T00:01:51.941Z,1.50
2019-03-18T00:04:17.967Z,1.50
2019-03-18T00:06:44.008Z,1.57
2019-03-18T00:09:10.363Z,1.35
2019-03-18T00:11:36.417Z,1.72
2019-03-18T00:14:02.719Z,1.47
2019-03-18T00:16:28.744Z,1.50
2019-03-18T00:18:54.757Z,1.42
2019-03-18T00:21:20.806Z,1.45
2019-03-18T00:23:46.817Z,1.50
2019-03-18T00:26:12.845Z,1.80
2019-03-18T00:28:39.165Z,1.72
2019-03-18T00:31:05.184Z,1.67
2019-03-18T00:33:31.242Z,1.57
2019-03-18T00:35:57.276Z,1.50
2019-03-18T00:38:23.339Z,2.33
2019-03-18T00:40:49.362Z,1.67
2019-03-18T00:43:15.464Z,1.85
2019-03-18T00:45:41.500Z,1.90
2019-03-18T00:48:07.564Z,2.08
2019-03-18T00:50:33.570Z,2.40
2019-03-18T00:52:59.709Z,1.87
2019-03-18T00:55:25.752Z,2.12
2019-03-18T00:57:51.837Z,2.42
2019-03-18T01:00:18.189Z,2.08
2019-03-18T01:02:44.339Z,2.35
2019-03-18T01:05:10.492Z,2.20
2019-03-18T01:07:36.578Z,2.22
2019-03-18T01:10:06.126Z,2.20
2019-03-18T01:12:32.158Z,1.92
2019-03-18T01:14:58.199Z,2.25
2019-03-18T01:17:24.233Z,2.40
2019-03-18T01:19:50.302Z,2.02
2019-03-18T01:22:16.502Z,2.33
2019-03-18T01:24:42.522Z,2.05
2019-03-18T01:27:08.551Z,2.00
2019-03-18T01:29:34.849Z,1.95
2019-03-18T01:32:00.883Z,2.30
2019-03-18T01:34:26.904Z,2.15
2019-03-18T01:36:52.923Z,2.08
2019-03-18T01:39:18.964Z,2.15
2019-03-18T01:41:44.990Z,1.90
2019-03-18T01:44:11.077Z,2.22
2019-03-18T01:46:37.101Z,2.20
2019-03-18T01:49:03.117Z,1.70
2019-03-18T01:51:29.474Z,2.25
2019-03-18T01:53:55.504Z,1.90
2019-03-18T01:56:21.511Z,1.95
2019-03-18T01:58:47.538Z,2.30
2019-03-18T02:01:13.558Z,2.35
2019-03-18T02:03:39.594Z,2.08
2019-03-18T02:06:05.638Z,1.95
2019-03-18T02:08:31.924Z,1.80
2019-03-18T02:10:58.152Z,1.75
2019-03-18T02:13:24.169Z,1.87
2019-03-18T02:15:53.479Z,2.00
2019-03-18T02:18:18.134Z,1.90
2019-03-18T02:20:44.160Z,1.85
2019-03-18T02:23:10.205Z,1.70
2019-03-18T02:25:36.226Z,1.87
2019-03-18T02:28:02.257Z,1.92
2019-03-18T02:30:28.278Z,1.80
2019-03-18T02:32:54.330Z,1.85
2019-03-18T02:35:20.425Z,1.85
2019-03-18T02:37:46.774Z,2.40
2019-03-18T02:40:12.909Z,1.70
2019-03-18T02:42:38.913Z,1.95
2019-03-18T02:45:07.551Z,1.62
2019-03-18T02:47:33.591Z,1.67
2019-03-18T02:49:59.631Z,1.65
2019-03-18T02:52:25.654Z,1.70
2019-03-18T02:54:51.681Z,1.57
2019-03-18T02:57:17.703Z,1.35
2019-03-18T02:59:43.740Z,1.50
2019-03-18T03:02:10.164Z,1.37
2019-03-18T03:04:36.187Z,1.55
2019-03-18T03:07:02.306Z,1.92
2019-03-18T03:09:28.335Z,1.82
2019-03-18T03:11:54.379Z,2.20
2019-03-18T03:14:20.427Z,2.08
2019-03-18T03:16:46.522Z,2.12
2019-03-18T03:19:12.559Z,2.30
2019-03-18T03:21:38.579Z,2.00
2019-03-18T03:24:04.709Z,2.33
2019-03-18T03:26:30.795Z,2.02
2019-03-18T03:28:56.823Z,1.98
2019-03-18T03:31:22.905Z,2.35
2019-03-18T03:33:48.935Z,2.25
2019-03-18T03:36:14.932Z,2.10
2019-03-18T03:38:41.320Z,2.02
2019-03-18T03:41:07.476Z,2.00
2019-03-18T03:43:33.495Z,2.87
2019-03-18T03:45:59.561Z,2.08
2019-03-18T03:48:25.678Z,2.77
2019-03-18T03:50:51.777Z,2.75
2019-03-18T03:53:17.782Z,1.98
2019-03-18T03:55:43.931Z,2.25
2019-03-18T03:58:09.975Z,2.40
2019-03-18T04:00:36.183Z,2.20
2019-03-18T04:03:02.507Z,2.10
2019-03-18T04:05:28.681Z,2.70
2019-03-18T04:07:54.717Z,3.55
2019-03-18T04:10:20.756Z,1.92
2019-03-18T04:12:46.809Z,2.62
2019-03-18T04:15:13.946Z,2.42
2019-03-18T04:17:39.966Z,2.33
2019-03-18T04:20:11.593Z,2.60
2019-03-18T04:22:57.507Z,2.33
2019-03-18T04:25:23.614Z,2.62
2019-03-18T04:27:49.634Z,2.65
2019-03-18T04:30:15.807Z,3.00
2019-03-18T04:32:43.786Z,2.52
2019-03-18T04:35:09.800Z,2.33
2019-03-18T04:37:36.817Z,2.52
2019-03-18T04:40:04.481Z,2.45
2019-03-18T04:42:30.598Z,2.72
2019-03-18T04:44:56.705Z,2.47
2019-03-18T04:47:22.741Z,2.17
2019-03-18T04:49:48.773Z,2.60
2019-03-18T04:52:15.188Z,2.22
2019-03-18T04:54:41.194Z,2.47
2019-03-18T04:57:07.246Z,2.35
2019-03-18T04:59:33.296Z,2.62
2019-03-18T05:01:59.325Z,2.65
2019-03-18T05:04:25.352Z,2.20
2019-03-18T05:06:51.395Z,3.25
2019-03-18T05:09:17.455Z,2.20
2019-03-18T05:11:43.499Z,2.70
2019-03-18T05:14:09.518Z,2.60
2019-03-18T05:16:35.606Z,2.83
2019-03-18T05:19:01.654Z,2.35
2019-03-18T05:21:27.701Z,2.60
2019-03-18T05:23:53.729Z,2.70
2019-03-18T05:26:22.199Z,2.30
2019-03-18T05:28:47.706Z,2.60
2019-03-18T05:31:13.713Z,2.27
2019-03-18T05:33:39.754Z,3.22
2019-03-18T05:36:05.770Z,3.08
2019-03-18T05:38:31.837Z,3.00
2019-03-18T05:40:57.863Z,3.10
2019-03-18T05:43:23.889Z,2.75
2019-03-18T05:45:49.970Z,2.40
2019-03-18T05:48:16.022Z,2.37
2019-03-18T05:50:42.047Z,2.80
2019-03-18T05:53:08.069Z,3.00
2019-03-18T05:55:34.195Z,2.75
2019-03-18T05:58:00.263Z,3.02
2019-03-18T06:00:26.310Z,3.30
2019-03-18T06:02:52.332Z,3.00
2019-03-18T06:05:18.369Z,3.05
2019-03-18T06:07:44.406Z,2.62
2019-03-18T06:10:11.387Z,3.02
2019-03-18T06:12:37.550Z,2.92
2019-03-18T06:15:06.484Z,4.05
2019-03-18T06:17:32.540Z,3.75
2019-03-18T06:19:58.752Z,3.72
2019-03-18T06:22:24.859Z,3.00
2019-03-18T06:24:50.939Z,4.08
2019-03-18T06:27:16.952Z,3.22
2019-03-18T06:29:42.984Z,4.05
2019-03-18T06:32:09.003Z,4.30
2019-03-18T06:34:35.450Z,4.30
2019-03-18T06:37:01.534Z,4.10
2019-03-18T06:39:27.594Z,4.20
2019-03-18T06:41:53.662Z,4.85
2019-03-18T06:44:19.695Z,4.40
2019-03-18T06:46:45.842Z,4.40
2019-03-18T06:49:11.895Z,4.17
2019-03-18T06:51:37.897Z,4.53
2019-03-18T06:54:03.930Z,4.20
2019-03-18T06:56:29.951Z,4.20
2019-03-18T06:58:55.971Z,4.37
2019-03-18T07:01:21.999Z,4.35
2019-03-18T07:03:48.038Z,4.60
2019-03-18T07:06:14.139Z,5.10
2019-03-18T07:08:40.151Z,4.85
2019-03-18T07:11:06.230Z,4.67
2019-03-18T07:13:32.240Z,4.47
2019-03-18T07:16:00.067Z,4.22
2019-03-18T07:18:26.414Z,5.83
2019-03-18T07:20:52.641Z,5.05
2019-03-18T07:23:19.002Z,4.30
2019-03-18T07:25:45.020Z,4.20
2019-03-18T07:28:11.034Z,4.33
2019-03-18T07:30:37.081Z,4.25
2019-03-18T07:33:03.100Z,4.33
2019-03-18T07:35:29.127Z,4.92
2019-03-18T07:37:55.206Z,4.60
2019-03-18T07:40:21.706Z,4.20
2019-03-18T07:42:47.724Z,4.80
2019-03-18T07:45:15.742Z,4.67
2019-03-18T07:47:41.961Z,5.42
2019-03-18T07:50:12.537Z,4.20
2019-03-18T07:52:38.613Z,4.50
2019-03-18T07:55:12.497Z,4.80
2019-03-18T07:57:38.534Z,4.25
2019-03-18T08:00:10.500Z,4.05
2019-03-18T08:02:36.606Z,4.30
2019-03-18T08:05:05.331Z,4.03
2019-03-18T08:07:31.389Z,3.67
2019-03-18T08:09:57.419Z,3.98
2019-03-18T08:12:23.440Z,4.28
2019-03-18T08:14:49.468Z,4.33
2019-03-18T08:17:15.498Z,4.10
2019-03-18T08:19:41.527Z,4.47
2019-03-18T08:22:07.596Z,4.60
2019-03-18T08:24:33.628Z,4.15
2019-03-18T08:26:59.775Z,4.60
2019-03-18T08:29:25.802Z,4.00
2019-03-18T08:31:51.849Z,4.08
2019-03-18T08:34:17.871Z,3.70
2019-03-18T08:36:43.909Z,4.37
2019-03-18T08:39:10.290Z,3.40
2019-03-18T08:41:36.327Z,3.70
2019-03-18T08:44:02.359Z,3.62
2019-03-18T08:46:28.373Z,4.05
2019-03-18T08:48:56.004Z,3.67
2019-03-18T08:51:22.273Z,3.30
2019-03-18T08:53:48.322Z,3.10
2019-03-18T08:56:14.361Z,3.25
2019-03-18T08:58:40.397Z,3.17
2019-03-18T09:01:06.422Z,2.77
2019-03-18T09:03:32.518Z,2.42
2019-03-18T09:05:58.541Z,2.40
2019-03-18T09:08:26.458Z,2.47
2019-03-18T09:10:52.501Z,1.90
2019-03-18T09:13:18.521Z,2.95
2019-03-18T09:15:44.593Z,2.00
2019-03-18T09:18:10.654Z,2.33
2019-03-18T09:20:36.696Z,2.17
2019-03-18T09:23:02.843Z,2.05
2019-03-18T09:25:28.868Z,2.37
2019-03-18T09:27:54.903Z,2.10
2019-03-18T09:30:20.914Z,2.10
2019-03-18T09:32:47.348Z,2.05
2019-03-18T09:35:13.366Z,2.00
2019-03-18T09:37:39.573Z,1.47
2019-03-18T09:40:08.843Z,1.70
2019-03-18T09:42:34.902Z,1.25
2019-03-18T09:45:01.211Z,1.40
2019-03-18T09:47:27.229Z,1.12
2019-03-18T09:49:53.271Z,1.10
2019-03-18T09:52:19.289Z,1.35
2019-03-18T09:54:45.321Z,1.40
2019-03-18T09:57:11.341Z,1.40
2019-03-18T09:59:37.375Z,1.30
2019-03-18T10:02:03.477Z,1.12
2019-03-18T10:04:29.573Z,0.90
2019-03-18T10:06:55.614Z,1.07
2019-03-18T10:09:21.650Z,0.88
2019-03-18T10:11:47.663Z,1.20
2019-03-18T10:14:13.707Z,1.00
2019-03-18T10:16:39.765Z,1.32
2019-03-18T10:19:06.123Z,1.45
2019-03-18T10:21:34.930Z,1.45
2019-03-18T10:24:00.953Z,1.50
2019-03-18T10:26:27.013Z,1.22
2019-03-18T10:28:53.087Z,1.57
2019-03-18T10:31:19.194Z,1.57
2019-03-18T10:33:45.236Z,1.15
2019-03-18T10:36:11.256Z,1.80
2019-03-18T10:38:37.292Z,1.22
2019-03-18T10:41:03.427Z,1.42
2019-03-18T10:43:29.470Z,1.62
2019-03-18T10:45:55.506Z,1.75
2019-03-18T10:48:21.589Z,1.67
2019-03-18T10:50:47.603Z,1.70
2019-03-18T10:53:13.664Z,1.90
2019-03-18T10:55:39.694Z,1.60
2019-03-18T10:58:06.078Z,1.37
2019-03-18T11:00:32.118Z,1.50
2019-03-18T11:02:58.246Z,1.52
2019-03-18T11:05:24.374Z,1.65
2019-03-18T11:07:51.765Z,1.25
2019-03-18T11:10:18.246Z,1.50
2019-03-18T11:12:44.266Z,1.98
2019-03-18T11:15:17.351Z,1.60
2019-03-18T11:17:43.488Z,1.60
2019-03-18T11:20:13.725Z,1.35
2019-03-18T11:22:39.746Z,1.42
2019-03-18T11:25:10.258Z,1.85
2019-03-18T11:27:36.434Z,1.55
2019-03-18T11:30:04.783Z,1.95
2019-03-18T11:32:30.861Z,1.80
2019-03-18T11:34:56.902Z,1.92
2019-03-18T11:37:22.916Z,2.10
2019-03-18T11:39:48.949Z,1.45
2019-03-18T11:42:15.078Z,1.77
2019-03-18T11:44:41.126Z,1.30
2019-03-18T11:47:07.731Z,0.98
2019-03-18T11:49:39.446Z,1.45
2019-03-18T11:52:02.069Z,1.20
2019-03-18T11:54:28.175Z,1.20
2019-03-18T11:56:55.381Z,1.17
2019-03-18T11:59:21.432Z,1.07
2019-03-18T12:01:47.468Z,1.00
2019-03-18T12:04:13.518Z,0.88
2019-03-18T12:06:39.667Z,1.30
2019-03-18T12:09:06.114Z,0.93
2019-03-18T12:11:32.462Z,1.35
2019-03-18T12:13:58.538Z,1.02
2019-03-18T12:16:24.647Z,1.30
2019-03-18T12:18:50.710Z,1.57
2019-03-18T12:21:16.808Z,1.20
2019-03-18T12:23:43.810Z,1.22
2019-03-18T12:26:09.867Z,1.25
2019-03-18T12:28:35.898Z,1.20
2019-03-18T12:31:02.134Z,1.05
2019-03-18T12:33:28.165Z,1.00
2019-03-18T12:35:54.198Z,1.32
2019-03-18T12:38:20.274Z,1.37
2019-03-18T12:40:46.663Z,1.20
2019-03-18T12:43:12.669Z,0.90
2019-03-18T12:45:39.087Z,0.85
2019-03-18T12:48:05.710Z,1.20
2019-03-18T12:50:49.357Z,1.20
2019-03-18T12:52:59.724Z,1.17
2019-03-18T12:55:25.744Z,0.93
2019-03-18T12:57:52.013Z,1.07
2019-03-18T13:00:31.818Z,1.10
2019-03-18T13:02:57.846Z,1.35
2019-03-18T13:05:23.907Z,0.93
2019-03-18T13:07:49.996Z,1.20
2019-03-18T13:10:21.479Z,1.57
2019-03-18T13:12:47.667Z,1.10
2019-03-18T13:15:17.315Z,1.22
2019-03-18T13:17:43.969Z,1.30
2019-03-18T13:20:12.494Z,1.40
2019-03-18T13:22:38.702Z,1.35
2019-03-18T13:25:07.215Z,1.15
2019-03-18T13:27:33.764Z,1.40
2019-03-18T13:29:59.784Z,1.42
2019-03-18T13:32:26.046Z,1.25
2019-03-18T13:34:52.068Z,1.50
2019-03-18T13:37:18.094Z,1.40
2019-03-18T13:39:44.130Z,1.60
2019-03-18T13:42:10.166Z,1.37
2019-03-18T13:44:36.203Z,1.90
2019-03-18T13:47:02.436Z,1.62
2019-03-18T13:49:28.458Z,1.95
2019-03-18T13:51:54.482Z,1.80
2019-03-18T13:54:20.852Z,1.47
2019-03-18T13:56:46.894Z,1.40
2019-03-18T13:59:13.191Z,1.20
2019-03-18T14:01:39.209Z,1.10
2019-03-18T14:04:05.335Z,1.10
2019-03-18T14:06:31.341Z,1.30
2019-03-18T14:08:57.395Z,1.05
2019-03-18T14:11:23.429Z,1.20
2019-03-18T14:13:49.456Z,1.30
2019-03-18T14:16:15.494Z,1.60
2019-03-18T14:18:41.517Z,1.65
2019-03-18T14:21:07.609Z,1.42
2019-03-18T14:23:33.700Z,1.77
2019-03-18T14:25:59.738Z,1.70
2019-03-18T14:28:25.785Z,1.95
2019-03-18T14:30:51.786Z,1.77
2019-03-18T14:33:25.346Z,1.75
2019-03-18T14:35:52.213Z,1.90
2019-03-18T14:38:18.367Z,1.70
2019-03-18T14:40:44.917Z,2.00
2019-03-18T14:43:10.987Z,1.62
2019-03-18T14:45:37.011Z,1.90
2019-03-18T14:48:03.263Z,1.90
2019-03-18T14:50:29.325Z,1.50
2019-03-18T14:52:55.609Z,1.85
2019-03-18T14:55:21.639Z,1.80
2019-03-18T14:57:48.143Z,1.70
2019-03-18T15:00:24.198Z,1.65
2019-03-18T15:02:50.335Z,1.80
2019-03-18T15:05:16.499Z,1.60
2019-03-18T15:07:42.809Z,1.50
2019-03-18T15:10:11.954Z,1.25
2019-03-18T15:12:38.232Z,1.60
2019-03-18T15:15:07.682Z,1.57
2019-03-18T15:17:33.777Z,1.40
2019-03-18T15:20:00.179Z,1.40
2019-03-18T15:22:26.435Z,1.27
2019-03-18T15:24:52.464Z,1.60
2019-03-18T15:27:18.494Z,1.65
2019-03-18T15:29:44.813Z,1.25
2019-03-18T15:32:10.832Z,1.50
2019-03-18T15:34:36.923Z,1.52
2019-03-18T15:37:02.940Z,1.42
2019-03-18T15:39:28.954Z,1.75
2019-03-18T15:41:54.988Z,1.40
2019-03-18T15:44:21.006Z,1.80
2019-03-18T15:46:47.046Z,1.50
2019-03-18T15:49:13.069Z,1.50
2019-03-18T15:51:39.263Z,1.47
2019-03-18T15:54:05.399Z,1.40
2019-03-18T15:56:31.426Z,1.37
2019-03-18T15:58:57.453Z,1.10
2019-03-18T16:01:25.735Z,1.50
2019-03-18T16:03:51.766Z,1.52
2019-03-18T16:06:17.847Z,1.27
2019-03-18T16:08:44.201Z,1.40
2019-03-18T16:11:10.261Z,0.90
2019-03-18T16:13:36.279Z,1.27
2019-03-18T16:16:03.054Z,1.37
2019-03-18T16:18:29.147Z,1.45
2019-03-18T16:20:55.412Z,1.10
2019-03-18T16:23:21.515Z,0.90
2019-03-18T16:25:47.530Z,1.15
2019-03-18T16:28:13.600Z,0.88
2019-03-18T16:30:39.678Z,1.45
2019-03-18T16:33:05.805Z,1.12
2019-03-18T16:35:31.845Z,1.15
2019-03-18T16:37:57.976Z,1.10
2019-03-18T16:40:24.125Z,1.40
2019-03-18T16:42:50.231Z,1.37
2019-03-18T16:45:17.109Z,1.30
2019-03-18T16:47:43.176Z,1.07
2019-03-18T16:50:21.187Z,1.00
2019-03-18T16:52:47.299Z,1.20
2019-03-18T16:55:13.397Z,1.32
2019-03-18T16:57:39.597Z,1.62
2019-03-18T17:00:12.470Z,1.35
2019-03-18T17:02:38.734Z,1.05
2019-03-18T17:05:06.302Z,1.27
2019-03-18T17:07:32.330Z,1.40
2019-03-18T17:09:58.391Z,1.60
2019-03-18T17:12:24.427Z,1.80
2019-03-18T17:14:50.481Z,1.00
2019-03-18T17:17:16.528Z,1.45
2019-03-18T17:19:42.641Z,1.10
2019-03-18T17:22:08.727Z,1.60
2019-03-18T17:24:34.821Z,1.15
2019-03-18T17:27:00.862Z,1.20
2019-03-18T17:29:26.910Z,1.25
2019-03-18T17:31:52.914Z,1.30
2019-03-18T17:34:18.956Z,1.20
2019-03-18T17:36:44.996Z,1.27
2019-03-18T17:39:11.042Z,1.25
2019-03-18T17:41:37.120Z,1.47
2019-03-18T17:44:03.929Z,1.37
2019-03-18T17:46:29.962Z,1.32
2019-03-18T17:48:56.494Z,1.20
2019-03-18T17:51:23.027Z,1.40
2019-03-18T17:53:49.107Z,1.67
2019-03-18T17:56:15.128Z,1.40
2019-03-18T17:58:41.168Z,1.95
2019-03-18T18:01:07.201Z,1.42
2019-03-18T18:03:33.474Z,1.35
2019-03-18T18:05:59.528Z,1.60
2019-03-18T18:08:25.542Z,2.00
2019-03-18T18:10:52.149Z,1.90
2019-03-18T18:13:18.164Z,1.47
2019-03-18T18:15:44.235Z,1.77
2019-03-18T18:18:10.344Z,1.75
2019-03-18T18:20:37.671Z,1.37
2019-03-18T18:23:13.754Z,1.40
2019-03-18T18:25:32.024Z,1.32
2019-03-18T18:27:58.559Z,1.25
2019-03-18T18:30:24.597Z,1.32
2019-03-18T18:32:50.634Z,1.57
2019-03-18T18:35:16.654Z,1.20
2019-03-18T18:37:42.968Z,1.00
2019-03-18T18:40:16.361Z,1.57
2019-03-18T18:42:42.479Z,1.30
2019-03-18T18:45:10.405Z,1.00
2019-03-18T18:47:36.538Z,1.60
2019-03-18T18:50:04.877Z,1.60
2019-03-18T18:52:31.085Z,1.42
2019-03-18T18:54:57.113Z,1.42
2019-03-18T18:57:23.113Z,1.62
2019-03-18T18:59:49.147Z,1.30
2019-03-18T19:02:15.455Z,1.40
2019-03-18T19:04:41.577Z,1.55
2019-03-18T19:07:07.677Z,1.52
2019-03-18T19:09:33.727Z,1.70
2019-03-18T19:11:59.782Z,1.70
2019-03-18T19:14:26.507Z,1.90
2019-03-18T19:16:52.623Z,2.20
2019-03-18T19:19:18.663Z,1.67
2019-03-18T19:21:44.699Z,1.95
2019-03-18T19:24:10.788Z,2.17
2019-03-18T19:26:36.930Z,1.60
2019-03-18T19:29:03.071Z,1.80
2019-03-18T19:31:29.100Z,2.02
2019-03-18T19:33:55.137Z,2.08
2019-03-18T19:36:21.168Z,2.17
2019-03-18T19:38:47.273Z,1.80
2019-03-18T19:41:13.333Z,1.60
2019-03-18T19:43:39.600Z,2.33
2019-03-18T19:46:05.968Z,2.20
2019-03-18T19:48:34.306Z,2.30
2019-03-18T19:51:00.126Z,2.75
2019-03-18T19:53:26.224Z,2.05
2019-03-18T19:55:52.277Z,2.25
2019-03-18T19:58:18.344Z,2.55
2019-03-18T20:00:44.596Z,2.10
2019-03-18T20:03:10.650Z,1.95
2019-03-18T20:05:36.722Z,2.33
2019-03-18T20:08:02.875Z,1.87
2019-03-18T20:10:28.914Z,2.30
2019-03-18T20:12:55.030Z,2.60
2019-03-18T20:15:21.208Z,1.80
2019-03-18T20:17:47.316Z,2.05
2019-03-18T20:20:17.182Z,2.10
2019-03-18T20:22:43.214Z,2.10
2019-03-18T20:25:10.767Z,2.27
2019-03-18T20:27:36.878Z,2.25
2019-03-18T20:30:09.455Z,2.60
2019-03-18T20:32:35.480Z,2.20
2019-03-18T20:35:02.327Z,1.95
2019-03-18T20:37:28.379Z,2.30
2019-03-18T20:39:54.521Z,2.47
2019-03-18T20:42:20.643Z,2.08
2019-03-18T20:44:46.888Z,2.20
2019-03-18T20:47:12.931Z,2.52
2019-03-18T20:49:38.945Z,1.98
2019-03-18T20:52:16.014Z,2.17
2019-03-18T20:54:32.973Z,2.45
2019-03-18T20:56:59.009Z,2.02
2019-03-18T20:59:25.024Z,2.20
2019-03-18T21:01:51.041Z,2.50
2019-03-18T21:04:17.069Z,2.55
2019-03-18T21:06:43.119Z,1.92
2019-03-18T21:09:09.122Z,2.45
2019-03-18T21:11:35.150Z,2.30
2019-03-18T21:14:01.187Z,2.00
2019-03-18T21:16:27.205Z,1.90
2019-03-18T21:18:53.248Z,1.90
2019-03-18T21:21:19.290Z,2.30
2019-03-18T21:23:45.378Z,1.90
2019-03-18T21:26:11.408Z,2.40
2019-03-18T21:28:41.490Z,1.80
2019-03-18T21:31:05.339Z,2.50
2019-03-18T21:33:31.413Z,2.20
2019-03-18T21:35:57.447Z,1.90
2019-03-18T21:38:23.650Z,2.35
2019-03-18T21:40:49.685Z,1.65
2019-03-18T21:43:15.715Z,1.82
2019-03-18T21:45:41.735Z,1.92
2019-03-18T21:48:07.789Z,1.98
2019-03-18T21:50:33.801Z,2.05
2019-03-18T21:52:59.842Z,2.12
2019-03-18T21:55:25.881Z,2.00
2019-03-18T21:57:52.084Z,1.92
2019-03-18T22:00:19.414Z,1.47
2019-03-18T22:02:45.444Z,1.90
2019-03-18T22:05:11.908Z,2.10
2019-03-18T22:07:37.966Z,2.10
2019-03-18T22:10:07.801Z,2.12
2019-03-18T22:12:33.838Z,2.17
2019-03-18T22:14:59.867Z,1.95
2019-03-18T22:17:25.915Z,1.92
2019-03-18T22:19:51.951Z,2.00
2019-03-18T22:22:17.976Z,1.90
2019-03-18T22:24:45.531Z,1.77
2019-03-18T22:27:11.920Z,1.57
2019-03-18T22:29:38.196Z,1.60
2019-03-18T22:32:04.237Z,1.70
2019-03-18T22:34:30.309Z,1.50
2019-03-18T22:36:56.388Z,1.80
2019-03-18T22:39:22.475Z,1.60
2019-03-18T22:41:48.487Z,1.82
2019-03-18T22:44:14.847Z,2.20
2019-03-18T22:46:40.858Z,1.77
2019-03-18T22:49:06.901Z,1.62
2019-03-18T22:51:32.909Z,1.82
2019-03-18T22:53:58.967Z,1.50
2019-03-18T22:56:25.012Z,2.00
2019-03-18T22:58:51.031Z,2.72
2019-03-18T23:01:17.857Z,2.10
2019-03-18T23:03:44.274Z,1.90
2019-03-18T23:06:10.306Z,2.10
2019-03-18T23:08:36.357Z,2.40
2019-03-18T23:11:02.383Z,2.05
2019-03-18T23:13:28.422Z,1.80
2019-03-18T23:15:54.473Z,1.90
2019-03-18T23:18:20.537Z,1.95
2019-03-18T23:20:46.583Z,1.70
2019-03-18T23:23:12.739Z,1.98
2019-03-18T23:25:38.772Z,1.50
2019-03-18T23:28:04.809Z,1.50
2019-03-18T23:30:31.130Z,1.90
2019-03-18T23:32:57.154Z,1.47
2019-03-18T23:35:23.301Z,1.80
2019-03-18T23:37:49.336Z,1.72
2019-03-18T23:40:15.373Z,1.92
2019-03-18T23:42:41.391Z,1.60
2019-03-18T23:45:09.144Z,1.70
2019-03-18T23:47:35.181Z,1.37
2019-03-18T23:50:01.214Z,1.87
2019-03-18T23:52:27.466Z,1.70
2019-03-18T23:54:53.505Z,1.98
2019-03-18T23:57:19.536Z,2.00
2019-03-18T23:59:45.570Z,1.90
